Time;durP1;ratioP1;P1;durP2;ratioP2;P2;SDS_P1;SDS_P2;PMS_P1;PMS_P2;Temp;Humidity;BMP_temperature;BMP_pressure;BME280_temperature;BME280_humidity;BME280_pressure;Samples;Min_cycle;Max_cycle;Signal;HPM_P1;HPM_P2
2022/12/15 00:40:22;;;;;;;45.45;31.48;;;;;;;-3.43;73.64;97698.38;5099360;28;20052;-71
2022/12/15 00:42:49;;;;;;;47.53;31.35;;;;;;;-7.77;73.17;97029.50;5115360;28;20050;-71
2022/12/15 00:45:16;;;;;;;46.95;30.90;;;;;;;-0.91;73.79;97883.09;5114059;28;20063;-71
2022/12/15 00:47:46;;;;;;;46.03;30.63;;;;;;;-8.32;73.04;96667.44;5115444;28;20040;-71
2022/12/15 01:20:31;;;;;;;44.25;29.50;;;;;;;-9.45;72.87;96747.63;5111760;28;20048;-72
2022/12/15 01:22:59;;;;;;;48.20;30.85;;;;;;;-0.81;73.31;97928.72;5111121;28;20039;-72
2022/12/15 01:25:27;;;;;;;41.42;28.42;;;;;;;-0.80;73.31;97930.41;5111125;28;20058;-72
2022/12/15 01:27:55;;;;;;;45.97;30.05;;;;;;;-1.32;73.04;97919.00;5111675;28;20164;-73
2022/12/15 01:30:24;;;;;;;48.65;30.65;;;;;;;-0.76;73.33;97934.63;5111776;28;20185;-73
2022/12/15 01:32:51;;;;;;;46.42;29.48;;;;;;;-7.59;72.54;96791.63;5111974;28;20116;-72
2022/12/15 01:35:19;;;;;;;45.22;31.65;;;;;;;-4.81;72.68;97307.00;5113424;28;20046;-72
2022/12/15 01:37:46;;;;;;;48.60;32.35;;;;;;;-6.72;72.70;96942.16;5112688;28;20050;-72
2022/12/15 01:43:01;;;;;;;50.10;32.28;;;;;;;-9.92;72.45;96669.00;5098044;28;20046;-72
2022/12/15 01:45:54;;;;;;;52.67;32.35;;;;;;;-0.68;73.47;97945.63;5112739;28;20253;-72
2022/12/15 01:48:28;;;;;;;42.65;29.02;;;;;;;-4.38;72.92;97526.47;5110191;28;20052;-72
2022/12/15 01:51:10;;;;;;;49.50;31.15;;;;;;;-1.58;73.30;97809.81;5112120;28;20063;-71
2022/12/15 01:53:42;;;;;;;44.72;31.73;;;;;;;-2.57;72.84;97650.19;5111930;28;20047;-71
2022/12/15 01:56:11;;;;;;;45.65;32.22;;;;;;;-0.69;73.17;97976.00;5111414;28;20032;-71
2022/12/15 01:58:42;;;;;;;45.75;30.13;;;;;;;-0.68;73.22;97972.50;5110308;28;20044;-70
2022/12/15 02:01:09;;;;;;;47.22;31.83;;;;;;;-7.41;72.37;96850.34;5109588;28;20093;-71
2022/12/15 02:03:38;;;;;;;47.28;30.65;;;;;;;-0.67;73.38;97983.75;5110603;28;20032;-71
2022/12/15 02:06:08;;;;;;;47.65;30.48;;;;;;;-7.55;72.57;96969.00;5109896;28;20050;-72
2022/12/15 02:08:36;;;;;;;46.97;31.10;;;;;;;-0.63;73.19;97989.72;5110676;28;20042;-72
2022/12/15 02:11:37;;;;;;;45.42;29.10;;;;;;;-8.00;72.65;96754.03;5093696;28;20040;-71
2022/12/15 02:14:06;;;;;;;49.03;32.20;;;;;;;-3.72;73.28;97454.88;5107238;28;20152;-71
2022/12/15 02:16:59;;;;;;;42.85;30.98;;;;;;;-2.13;73.11;97724.09;5110394;28;20040;-71
2022/12/15 02:20:06;;;;;;;44.15;31.65;;;;;;;-7.68;72.78;96804.72;5110234;28;20234;-72
2022/12/15 02:22:47;;;;;;;43.80;31.95;;;;;;;-0.97;73.03;97962.16;5110705;28;20067;-72
2022/12/15 02:25:32;;;;;;;45.05;31.48;;;;;;;-6.60;72.77;96990.78;5109832;28;20036;-71
2022/12/15 02:28:04;;;;;;;45.70;29.90;;;;;;;-0.61;73.21;97975.75;5110401;28;20109;-71
2022/12/15 02:33:41;;;;;;;44.67;29.92;;;;;;;-14.45;72.00;95722.75;5111774;28;20051;-71
2022/12/15 02:36:16;;;;;;;45.05;28.17;;;;;;;-3.79;72.98;97451.59;5111635;28;20048;-72
2022/12/15 02:38:43;;;;;;;46.17;30.10;;;;;;;-3.07;73.10;97566.97;5111306;28;20040;-71
2022/12/15 02:41:34;;;;;;;44.08;30.20;;;;;;;-7.02;73.03;96899.16;5111166;28;20052;-71
2022/12/15 02:44:08;;;;;;;41.55;27.92;;;;;;;-0.58;73.44;97987.81;5111505;28;20122;-70
2022/12/15 02:46:48;;;;;;;42.95;27.85;;;;;;;-0.57;73.75;98000.78;5111446;28;20054;-71
2022/12/15 02:49:27;;;;;;;47.28;31.02;;;;;;;-1.25;73.51;97884.13;5110316;28;20039;-71
2022/12/15 02:52:09;;;;;;;43.17;29.70;;;;;;;-0.55;73.77;97987.72;5110636;28;20312;-71
2022/12/15 02:54:57;;;;;;;44.22;30.13;;;;;;;-3.94;73.86;97485.66;5114205;28;20051;-72
2022/12/15 02:57:34;;;;;;;45.38;29.63;;;;;;;-0.55;73.77;97998.97;5112639;28;20388;-72
2022/12/15 03:00:05;;;;;;;49.08;30.75;;;;;;;-1.19;73.72;97891.75;5094246;28;20089;-71
2022/12/15 03:02:42;;;;;;;46.00;30.52;;;;;;;-1.90;73.69;97780.50;5110691;28;20126;-72
2022/12/15 03:05:10;;;;;;;49.70;30.90;;;;;;;-0.50;73.52;98027.47;5112156;28;20040;-72
2022/12/15 03:07:37;;;;;;;44.15;28.85;;;;;;;-0.57;73.52;98026.81;5113250;28;20066;-71
2022/12/15 03:10:06;;;;;;;41.50;29.58;;;;;;;-6.42;72.87;97154.44;5112249;28;20326;-72
2022/12/15 03:12:34;;;;;;;42.83;30.00;;;;;;;-0.48;73.30;98047.31;5111176;28;20051;-72
2022/12/15 03:15:02;;;;;;;41.55;27.80;;;;;;;-6.76;72.78;96981.75;5111027;28;20047;-72
2022/12/15 03:17:29;;;;;;;44.95;28.60;;;;;;;-0.43;73.31;98029.81;5113962;28;20046;-71
2022/12/15 03:19:57;;;;;;;41.85;29.00;;;;;;;-6.60;72.60;96984.78;5082168;28;20074;-72
2022/12/15 03:22:23;;;;;;;46.25;31.13;;;;;;;-6.91;72.39;96939.22;5115915;28;20048;-72
2022/12/15 03:24:50;;;;;;;48.50;31.33;;;;;;;-0.43;73.17;98060.19;5115975;28;20043;-71
2022/12/15 03:27:18;;;;;;;42.25;29.92;;;;;;;-0.44;72.88;98046.34;5115186;28;20048;-71
2022/12/15 03:29:46;;;;;;;40.60;28.55;;;;;;;-0.45;72.99;98048.97;5099125;28;20065;-71
2022/12/15 03:32:15;;;;;;;53.22;34.08;;;;;;;-7.27;73.26;96904.06;5116364;28;20044;-70
2022/12/15 03:34:44;;;;;;;49.78;31.98;;;;;;;-13.21;72.32;95974.44;5117981;28;20036;-71
2022/12/15 03:37:12;;;;;;;47.17;31.23;;;;;;;-0.45;73.24;98056.78;5117271;28;20185;-72
2022/12/15 03:39:41;;;;;;;46.53;32.92;;;;;;;-11.01;72.21;96298.09;5116580;28;20040;-72
2022/12/15 03:42:46;;;;;;;46.03;29.98;;;;;;;-12.60;71.94;96156.16;5116462;28;20044;-71
2022/12/15 03:45:00;;;;;;;42.80;29.73;;;;;;;-6.51;72.55;97046.41;5115089;28;20113;-72
2022/12/15 03:47:36;;;;;;;41.72;29.38;;;;;;;-0.45;73.25;98062.00;5115962;28;20048;-71
2022/12/15 03:50:04;;;;;;;43.35;28.05;;;;;;;-4.00;72.80;97462.56;5099165;28;20044;-71
2022/12/15 03:52:32;;;;;;;42.17;29.67;;;;;;;-0.42;73.23;98075.78;5114882;28;20040;-71
2022/12/15 03:54:58;;;;;;;42.42;28.98;;;;;;;-3.64;73.01;97745.47;5115196;28;20036;-71
2022/12/15 03:57:26;;;;;;;45.33;29.77;;;;;;;-3.01;72.89;97656.66;5113835;28;20062;-71
2022/12/15 03:59:52;;;;;;;41.60;28.35;;;;;;;-0.40;73.25;98097.41;5115018;28;20089;-71
2022/12/15 04:02:21;;;;;;;45.42;30.23;;;;;;;-6.99;72.75;97002.94;5114148;28;20036;-71
2022/12/15 04:04:50;;;;;;;44.05;29.83;;;;;;;-0.40;73.39;98110.41;5114365;28;20108;-71
2022/12/15 04:07:17;;;;;;;46.88;31.50;;;;;;;-2.90;73.30;97695.22;5114927;28;20042;-71
2022/12/15 04:09:45;;;;;;;42.30;29.40;;;;;;;-7.68;72.94;96894.72;5114526;28;20043;-71
2022/12/15 04:12:13;;;;;;;45.70;29.55;;;;;;;-0.39;73.56;98190.22;5114568;28;20048;-71
2022/12/15 04:14:41;;;;;;;40.35;28.75;;;;;;;-0.38;74.00;98115.56;5113420;28;20036;-72
2022/12/15 04:17:08;;;;;;;42.50;29.23;;;;;;;-0.39;74.34;98121.69;5113368;28;20035;-71
2022/12/15 04:22:20;;;;;;;46.50;29.05;;;;;;;-6.26;74.05;97191.00;5112042;28;20055;-71
2022/12/15 05:33:44;;;;;;;33.35;23.85;;;;;;;-0.15;78.70;98186.00;5110520;28;20040;-70
2022/12/15 05:36:11;;;;;;;37.25;25.60;;;;;;;-0.84;78.76;98066.69;5094239;28;20052;-70
2022/12/15 05:38:37;;;;;;;33.08;22.65;;;;;;;-0.12;78.76;98188.53;5111202;28;20047;-72
2022/12/15 05:41:05;;;;;;;37.17;25.42;;;;;;;-0.11;78.87;98190.22;5110009;28;20036;-72
2022/12/15 05:43:31;;;;;;;39.30;26.02;;;;;;;-0.10;78.72;98198.91;5111591;28;20048;-71
2022/12/15 05:46:04;;;;;;;36.03;24.73;;;;;;;-0.10;79.19;98202.34;5112531;28;20040;-71
2022/12/15 05:48:30;;;;;;;35.53;25.35;;;;;;;-0.10;78.80;98191.09;5112745;28;20039;-71
2022/12/15 05:50:57;;;;;;;35.35;23.88;;;;;;;-2.20;78.90;97831.56;5112789;28;20053;-72
2022/12/15 05:53:24;;;;;;;32.22;22.73;;;;;;;-0.10;79.11;98202.34;5111622;28;20039;-71
2022/12/15 05:55:50;;;;;;;35.90;24.77;;;;;;;-13.07;77.89;96065.97;5111818;28;20195;-72
2022/12/15 05:58:17;;;;;;;33.47;23.95;;;;;;;-0.10;79.36;98215.38;5112210;28;20091;-71
2022/12/15 06:00:44;;;;;;;32.55;22.63;;;;;;;-0.08;79.37;98217.94;5112730;28;20043;-72
2022/12/15 06:03:12;;;;;;;32.30;21.75;;;;;;;-0.06;79.06;98214.38;5111248;28;20085;-72
2022/12/15 06:05:40;;;;;;;33.40;23.52;;;;;;;-0.06;79.58;98222.19;5111268;28;20098;-72
2022/12/15 06:08:08;;;;;;;33.17;21.98;;;;;;;-5.11;78.89;97378.38;5111015;28;20295;-72
2022/12/15 06:10:34;;;;;;;33.15;23.10;;;;;;;-0.04;79.37;98220.41;5112160;28;20044;-72
2022/12/15 06:13:01;;;;;;;33.45;21.60;;;;;;;-0.03;79.39;98229.06;5112089;28;20047;-71
2022/12/15 06:15:28;;;;;;;37.97;23.70;;;;;;;-0.02;79.23;98222.94;5111718;28;20040;-71
2022/12/15 06:17:55;;;;;;;30.83;23.00;;;;;;;-10.71;78.14;96437.41;5112514;28;20069;-71
2022/12/15 06:20:23;;;;;;;31.55;21.60;;;;;;;-0.03;79.33;98226.47;5111104;28;20047;-72
2022/12/15 06:22:50;;;;;;;30.55;21.85;;;;;;;-0.02;79.32;98232.53;5112020;28;20040;-71
2022/12/15 06:25:17;;;;;;;29.73;20.85;;;;;;;-0.04;79.36;98228.22;5111526;28;20053;-71
2022/12/15 06:27:44;;;;;;;32.30;23.08;;;;;;;-0.04;79.56;98214.34;5111324;28;20056;-72
2022/12/15 06:30:12;;;;;;;35.25;21.52;;;;;;;-0.70;79.65;98106.13;5111520;28;20040;-71
2022/12/15 06:32:39;;;;;;;29.05;21.27;;;;;;;-6.09;79.13;97217.28;5110524;28;20047;-71
2022/12/15 06:35:06;;;;;;;30.95;22.05;;;;;;;-0.70;79.54;98120.00;5110881;28;20067;-71
2022/12/15 06:37:35;;;;;;;33.90;24.38;;;;;;;-5.91;79.01;97254.69;5111073;28;20058;-71
2022/12/15 06:40:02;;;;;;;34.38;23.25;;;;;;;-0.01;79.57;98240.28;5111200;28;20050;-71
2022/12/15 06:42:29;;;;;;;29.98;21.70;;;;;;;-0.00;79.79;98248.94;5111176;28;20058;-71
2022/12/15 06:44:55;;;;;;;31.73;21.75;;;;;;;-1.80;79.42;97965.47;5110969;28;20100;-71
2022/12/15 06:47:22;;;;;;;31.83;22.60;;;;;;;0.03;79.47;98275.75;5110686;28;20055;-72
2022/12/15 06:49:49;;;;;;;31.02;22.50;;;;;;;0.04;79.42;98276.63;5110590;28;20257;-72
2022/12/15 06:52:16;;;;;;;35.13;22.92;;;;;;;0.05;79.33;98284.38;5110100;28;20047;-71
2022/12/15 06:54:44;;;;;;;34.72;24.05;;;;;;;0.05;79.35;98288.75;5111466;28;20226;-71
2022/12/15 06:57:10;;;;;;;35.08;23.55;;;;;;;0.06;79.29;98295.66;5110791;28;20047;-71
2022/12/15 06:59:38;;;;;;;32.95;23.38;;;;;;;-2.70;78.96;97851.97;5111090;28;20193;-71
2022/12/15 07:02:05;;;;;;;33.33;22.55;;;;;;;-1.73;79.08;98014.59;5110757;28;20052;-71
2022/12/15 07:04:32;;;;;;;36.38;25.38;;;;;;;-1.85;79.16;97993.31;5110314;28;20040;-71
2022/12/15 07:06:59;;;;;;;33.35;22.90;;;;;;;-0.51;79.86;98273.88;5111329;28;20036;-72
2022/12/15 07:09:26;;;;;;;30.50;22.45;;;;;;;0.07;79.38;98292.16;5110609;28;20042;-71
2022/12/15 07:11:54;;;;;;;33.80;23.52;;;;;;;0.06;79.32;98296.50;5110191;28;20074;-71
2022/12/15 07:14:21;;;;;;;32.28;23.73;;;;;;;-2.80;79.17;98007.81;5111053;28;20051;-72
2022/12/15 07:16:48;;;;;;;31.60;23.42;;;;;;;0.06;79.62;98288.69;5110803;28;20064;-72
2022/12/15 07:19:15;;;;;;;32.58;21.67;;;;;;;0.06;79.50;98303.47;5110412;28;20048;-71
2022/12/15 07:21:42;;;;;;;29.70;21.35;;;;;;;0.08;79.38;98309.50;5110244;28;20322;-72
2022/12/15 07:24:11;;;;;;;32.10;23.38;;;;;;;0.07;79.24;98303.44;5092993;28;20073;-71
2022/12/15 07:26:37;;;;;;;33.17;22.52;;;;;;;0.07;79.40;98305.19;5109946;28;20044;-72
2022/12/15 07:29:06;;;;;;;30.88;22.80;;;;;;;-5.30;78.64;97403.81;5110534;28;20044;-71
2022/12/15 07:31:32;;;;;;;31.75;22.63;;;;;;;0.07;79.27;98302.56;5110083;28;20044;-71
2022/12/15 07:33:59;;;;;;;31.65;21.95;;;;;;;-0.01;79.08;98292.38;5110396;28;20048;-71
2022/12/15 07:36:26;;;;;;;28.63;21.27;;;;;;;0.07;78.98;98337.31;5110198;28;20039;-71
2022/12/15 07:38:59;;;;;;;28.42;21.05;;;;;;;0.05;79.28;98306.97;5110052;28;20042;-72
2022/12/15 07:41:26;;;;;;;32.22;22.80;;;;;;;-6.75;78.38;97186.09;5109432;28;20063;-71
2022/12/15 07:43:53;;;;;;;31.58;22.67;;;;;;;-1.67;78.82;98047.34;5109668;28;20046;-71
2022/12/15 07:46:22;;;;;;;28.25;19.95;;;;;;;0.07;79.02;98358.16;5109703;28;20195;-71
2022/12/15 07:48:49;;;;;;;33.15;22.83;;;;;;;0.10;78.98;98359.81;5109022;28;20362;-71
2022/12/15 07:51:16;;;;;;;33.72;23.42;;;;;;;-1.35;78.71;98101.91;5108807;28;20040;-71
2022/12/15 07:53:43;;;;;;;36.10;25.88;;;;;;;0.09;78.81;98348.53;5109335;28;20035;-71
2022/12/15 07:56:10;;;;;;;31.58;22.52;;;;;;;0.11;78.77;98353.69;5108721;28;20278;-71
2022/12/15 07:58:38;;;;;;;32.25;23.58;;;;;;;0.11;78.75;98367.56;5109526;28;20040;-71
2022/12/15 08:01:07;;;;;;;31.52;23.27;;;;;;;0.12;78.66;98374.50;5108747;28;20040;-71
2022/12/15 08:03:35;;;;;;;33.78;22.65;;;;;;;-3.43;78.14;97865.88;5109784;28;20051;-71
2022/12/15 08:06:04;;;;;;;31.70;22.02;;;;;;;0.15;78.39;98420.44;5095976;28;20040;-71
2022/12/15 08:08:31;;;;;;;37.00;23.80;;;;;;;0.06;78.79;98364.25;5113265;28;20043;-71
2022/12/15 08:10:57;;;;;;;34.20;23.85;;;;;;;-0.98;78.56;98198.88;5112855;28;20048;-71
2022/12/15 08:13:24;;;;;;;29.48;21.60;;;;;;;-2.23;78.28;97981.34;5112990;28;20054;-71
2022/12/15 08:15:53;;;;;;;32.25;23.77;;;;;;;0.16;78.33;98404.78;5112024;28;20036;-72
2022/12/15 08:18:20;;;;;;;29.58;20.77;;;;;;;0.17;78.21;98401.28;5112650;28;20052;-71
2022/12/15 08:20:48;;;;;;;33.70;24.50;;;;;;;0.18;78.34;98389.94;5112665;28;20036;-71
2022/12/15 08:23:15;;;;;;;37.47;25.08;;;;;;;0.17;78.36;98401.28;5112300;28;20036;-72
2022/12/15 08:25:42;;;;;;;37.58;24.63;;;;;;;0.18;78.34;98405.59;5112096;28;20044;-72
2022/12/15 08:28:09;;;;;;;33.58;23.73;;;;;;;0.17;78.05;98393.47;5112330;28;20055;-72
2022/12/15 08:30:36;;;;;;;34.75;23.83;;;;;;;0.19;77.99;98401.22;5112333;28;20040;-71
2022/12/15 08:33:03;;;;;;;35.88;24.00;;;;;;;0.19;78.13;98402.09;5112559;28;20113;-71
2022/12/15 08:35:29;;;;;;;34.72;25.02;;;;;;;0.21;77.94;98407.25;5111873;28;20036;-71
2022/12/15 08:37:57;;;;;;;34.95;23.23;;;;;;;0.22;78.34;98401.13;5112968;28;20051;-71
2022/12/15 08:40:25;;;;;;;34.10;24.83;;;;;;;0.24;78.15;98404.56;5111982;28;20051;-71
2022/12/15 08:42:51;;;;;;;34.20;25.02;;;;;;;0.25;78.00;98414.94;5111946;28;20035;-70
2022/12/15 08:45:20;;;;;;;34.05;24.80;;;;;;;0.30;78.19;98420.00;5111942;28;20032;-71
2022/12/15 08:47:47;;;;;;;39.95;26.58;;;;;;;-2.60;77.94;98092.94;5110972;28;20043;-71
2022/12/15 08:50:17;;;;;;;39.47;26.75;;;;;;;0.33;78.21;98416.47;5112572;28;20062;-71
2022/12/15 08:52:44;;;;;;;38.28;26.63;;;;;;;-9.00;77.39;96986.28;5111858;28;20051;-70
2022/12/15 08:55:12;;;;;;;43.95;29.67;;;;;;;0.12;78.34;98382.31;5112239;28;20046;-71
2022/12/15 08:57:40;;;;;;;40.60;26.38;;;;;;;0.36;78.17;98414.63;5111494;28;20040;-71
2022/12/15 09:00:08;;;;;;;36.20;25.98;;;;;;;0.37;77.98;98425.91;5111266;28;20043;-71
2022/12/15 09:02:35;;;;;;;38.35;27.67;;;;;;;-5.65;77.53;97421.81;5110945;28;20119;-71
2022/12/15 09:05:01;;;;;;;37.00;25.05;;;;;;;-5.23;77.70;97500.06;5111200;28;20043;-71
2022/12/15 09:07:28;;;;;;;41.80;27.25;;;;;;;-0.10;78.10;98369.03;5112248;28;20044;-71
2022/12/15 09:09:55;;;;;;;38.78;27.27;;;;;;;0.43;78.18;98443.97;5111676;28;20082;-72
2022/12/15 09:12:23;;;;;;;38.00;26.88;;;;;;;-2.56;78.01;97942.38;5111592;28;20040;-71
2022/12/15 09:14:50;;;;;;;38.65;26.83;;;;;;;-2.95;77.86;97869.88;5110543;28;20127;-71
2022/12/15 09:17:17;;;;;;;37.53;26.90;;;;;;;-0.26;78.08;98494.50;5111687;28;20044;-71
2022/12/15 09:19:43;;;;;;;38.03;25.67;;;;;;;-6.82;77.16;97227.44;5111186;28;20287;-71
2022/12/15 09:22:10;;;;;;;37.67;26.63;;;;;;;0.44;78.00;98440.47;5110511;28;20036;-71
2022/12/15 09:24:37;;;;;;;39.22;26.55;;;;;;;-6.26;77.22;97317.34;5111288;28;20055;-71
2022/12/15 09:27:04;;;;;;;38.47;26.75;;;;;;;-2.48;77.67;97943.03;5109991;28;20124;-72
2022/12/15 09:29:32;;;;;;;41.38;26.50;;;;;;;-2.43;77.75;97946.38;5109980;28;20040;-71
2022/12/15 09:31:59;;;;;;;46.13;29.85;;;;;;;0.47;78.25;98432.56;5110472;28;20208;-71
2022/12/15 09:34:26;;;;;;;41.17;28.52;;;;;;;-0.64;78.09;98240.41;5110920;28;20059;-71
2022/12/15 09:36:53;;;;;;;44.65;29.38;;;;;;;0.54;78.18;98440.16;5093416;28;20040;-72
2022/12/15 09:39:20;;;;;;;43.67;30.75;;;;;;;0.56;78.00;98437.50;5109796;28;20051;-72
2022/12/15 09:41:53;;;;;;;43.90;30.20;;;;;;;-2.12;77.87;97987.09;5110308;28;20036;-72
2022/12/15 09:44:22;;;;;;;40.58;29.02;;;;;;;-0.99;78.12;98194.56;5110663;28;20059;-72
2022/12/15 09:47:13;;;;;;;42.55;29.25;;;;;;;0.55;78.55;98441.88;5109641;28;20044;-71
2022/12/15 09:49:53;;;;;;;40.55;29.13;;;;;;;-1.10;78.16;98163.63;5110058;28;20059;-72
2022/12/15 09:52:25;;;;;;;46.97;28.73;;;;;;;0.25;78.13;98422.75;5110938;28;20050;-72
2022/12/15 09:54:52;;;;;;;44.17;29.20;;;;;;;-0.30;77.87;98310.59;5111074;28;20054;-72
2022/12/15 09:57:26;;;;;;;38.58;26.60;;;;;;;-1.89;77.80;98018.50;5111291;28;20036;-72
2022/12/15 10:00:11;;;;;;;41.10;29.08;;;;;;;0.61;78.03;98451.25;5110817;28;20288;-72
2022/12/15 10:03:22;;;;;;;37.08;26.27;;;;;;;-1.81;77.90;98019.16;5111365;28;20055;-72
2022/12/15 10:06:15;;;;;;;40.95;28.88;;;;;;;-0.63;77.75;98226.50;5110096;28;20065;-72
2022/12/15 10:08:45;;;;;;;37.67;26.80;;;;;;;0.66;77.50;98444.16;5108915;28;20243;-72
2022/12/15 10:11:20;;;;;;;40.35;29.02;;;;;;;0.68;77.56;98447.56;5110482;28;20040;-72
2022/12/15 10:13:54;;;;;;;39.28;28.13;;;;;;;-1.50;77.37;98075.47;5110578;28;20044;-72
2022/12/15 10:16:27;;;;;;;42.20;28.65;;;;;;;0.74;77.24;98441.31;5109148;28;20036;-72
2022/12/15 10:19:07;;;;;;;41.78;28.00;;;;;;;-2.18;77.05;98014.06;5110391;28;20066;-71
2022/12/15 10:21:35;;;;;;;46.03;29.80;;;;;;;0.80;77.32;98446.34;5109441;28;20062;-71
2022/12/15 10:24:16;;;;;;;42.75;29.13;;;;;;;0.80;77.65;98436.78;5110251;28;20066;-72
2022/12/15 10:26:48;;;;;;;43.95;30.08;;;;;;;-0.19;77.17;98261.69;5092657;28;20052;-72
2022/12/15 10:29:24;;;;;;;45.65;30.17;;;;;;;-0.48;77.21;98203.50;5109685;28;20036;-72
2022/12/15 10:31:55;;;;;;;43.90;29.90;;;;;;;0.60;77.13;98380.00;5109253;28;20199;-72
2022/12/15 10:34:29;;;;;;;43.47;30.23;;;;;;;0.85;77.39;98428.81;5109570;28;20123;-71
2022/12/15 10:36:57;;;;;;;43.42;29.38;;;;;;;0.85;77.26;98428.81;5110520;28;20040;-72
2022/12/15 10:39:36;;;;;;;47.78;30.35;;;;;;;-9.36;76.06;96720.13;5109545;28;20035;-72
2022/12/15 10:42:19;;;;;;;51.00;31.42;;;;;;;-0.25;76.72;98254.03;5110272;28;20040;-72
2022/12/15 10:44:48;;;;;;;45.67;30.88;;;;;;;-0.22;76.71;98247.00;5110348;28;20043;-72
2022/12/15 10:47:20;;;;;;;47.70;32.05;;;;;;;0.79;76.88;98437.66;5109245;28;20047;-72
2022/12/15 10:49:48;;;;;;;49.42;31.80;;;;;;;0.78;77.04;98449.00;5110255;28;20103;-72
2022/12/15 10:52:27;;;;;;;47.17;31.85;;;;;;;0.77;77.12;98436.00;5109128;28;20044;-72
2022/12/15 10:54:56;;;;;;;45.38;31.67;;;;;;;-3.01;76.70;97918.44;5110334;28;20036;-72
2022/12/15 10:57:28;;;;;;;44.95;31.45;;;;;;;0.75;77.18;98429.97;5109483;28;20044;-72
2022/12/15 10:59:56;;;;;;;53.00;33.65;;;;;;;-1.06;77.00;98136.63;5108821;28;20040;-72
2022/12/15 11:02:31;;;;;;;47.35;32.28;;;;;;;0.77;77.20;98423.81;5110069;28;20055;-71
2022/12/15 11:05:01;;;;;;;46.28;32.28;;;;;;;-4.19;76.77;97594.13;5109868;28;20047;-70
2022/12/15 11:07:34;;;;;;;50.63;33.25;;;;;;;0.80;77.16;98436.78;5109010;28;20048;-71
2022/12/15 11:10:08;;;;;;;48.47;32.78;;;;;;;-1.62;76.84;98071.47;5110476;28;20099;-71
2022/12/15 11:12:52;;;;;;;48.90;32.70;;;;;;;-0.76;77.11;98163.56;5109473;28;20044;-71
2022/12/15 11:15:51;;;;;;;45.72;32.45;;;;;;;-5.76;76.70;97313.69;5110080;28;20393;-71
2022/12/15 11:18:27;;;;;;;45.22;30.77;;;;;;;-0.98;76.84;98126.91;5032007;28;20057;-71
2022/12/15 11:21:02;;;;;;;47.05;30.55;;;;;;;-6.61;76.28;97184.91;5100809;28;20067;-71
2022/12/15 11:23:41;;;;;;;48.63;32.85;;;;;;;-0.93;76.49;98127.63;5109189;28;20046;-70
2022/12/15 11:26:23;;;;;;;45.35;30.48;;;;;;;-0.45;76.61;98203.41;5093792;28;20308;-70
2022/12/15 11:28:56;;;;;;;41.65;29.90;;;;;;;-6.05;75.93;97254.16;5109118;28;20048;-71
2022/12/15 11:31:31;;;;;;;51.00;32.92;;;;;;;-2.36;76.26;98142.53;5110381;28;20089;-71
2022/12/15 11:33:58;;;;;;;53.38;35.90;;;;;;;0.89;76.56;98423.44;5109631;28;20046;-71
2022/12/15 11:36:48;;;;;;;49.63;31.55;;;;;;;0.87;76.67;98417.41;5109891;28;20093;-70
2022/12/15 11:39:25;;;;;;;44.33;30.92;;;;;;;0.88;76.43;98413.06;5113757;28;20040;-71
2022/12/15 11:42:02;;;;;;;46.63;31.50;;;;;;;0.85;76.49;98419.22;5114646;28;20054;-71
2022/12/15 11:44:40;;;;;;;49.22;31.70;;;;;;;0.86;76.69;98430.50;5113015;28;20055;-71
2022/12/15 11:47:16;;;;;;;45.45;30.38;;;;;;;0.85;76.36;98432.28;5114166;28;20304;-71
2022/12/15 11:50:00;;;;;;;47.58;31.67;;;;;;;0.87;76.36;98427.00;5113783;28;20043;-71
2022/12/15 11:52:44;;;;;;;49.17;31.40;;;;;;;-0.61;76.28;98162.25;5113659;28;20284;-70
2022/12/15 11:55:18;;;;;;;41.53;29.67;;;;;;;0.87;76.45;98409.59;5114101;28;20040;-70
2022/12/15 11:57:57;;;;;;;40.88;29.35;;;;;;;0.87;76.27;98409.59;5114182;28;20044;-71
2022/12/15 12:00:24;;;;;;;49.00;31.38;;;;;;;0.87;76.34;98417.41;5113497;28;20044;-72
2022/12/15 12:03:10;;;;;;;49.58;31.63;;;;;;;0.88;76.26;98407.84;5114300;28;20044;-71
2022/12/15 12:05:51;;;;;;;42.20;29.05;;;;;;;-4.18;75.80;97558.75;5112641;28;20092;-73
2022/12/15 12:08:36;;;;;;;42.08;30.00;;;;;;;0.85;76.26;98408.78;5095862;28;20040;-72
2022/12/15 12:11:12;;;;;;;46.63;31.45;;;;;;;0.86;76.49;98399.22;5112825;28;20050;-72
2022/12/15 12:13:50;;;;;;;44.10;29.73;;;;;;;0.87;76.27;98417.41;5113184;28;20040;-73
2022/12/15 12:16:28;;;;;;;47.72;31.65;;;;;;;0.87;76.18;98429.59;5113272;28;20036;-73
2022/12/15 12:19:01;;;;;;;45.10;31.42;;;;;;;0.84;76.25;98419.28;5112874;28;20040;-73
2022/12/15 12:21:32;;;;;;;48.75;32.35;;;;;;;-1.54;76.04;98053.91;5095019;28;20044;-72
2022/12/15 12:24:02;;;;;;;44.92;31.95;;;;;;;-0.50;76.31;98207.03;5111613;28;20044;-72
2022/12/15 12:26:35;;;;;;;50.30;32.67;;;;;;;0.80;76.36;98423.72;5111982;28;20048;-72
2022/12/15 12:29:06;;;;;;;49.80;33.75;;;;;;;-6.48;75.72;97262.81;5113324;28;20093;-72
2022/12/15 12:31:41;;;;;;;48.60;31.33;;;;;;;-1.70;76.20;98004.13;5111830;28;20040;-73
2022/12/15 12:34:12;;;;;;;;;;;;;;;0.72;76.75;98420.50;5112956;28;20050;-72
2022/12/15 12:36:42;;;;;;;48.50;30.15;;;;;;;-10.47;75.68;96580.31;5110989;28;19915;-73
2022/12/15 12:39:17;;;;;;;47.78;31.77;;;;;;;0.74;76.71;98410.88;5111953;28;20050;-73
2022/12/15 12:41:48;;;;;;;48.10;31.77;;;;;;;0.74;76.63;98413.47;5112221;28;20070;-72
2022/12/15 12:44:22;;;;;;;49.60;32.10;;;;;;;0.74;76.52;98415.25;5094741;28;20128;-72
2022/12/15 12:46:54;;;;;;;46.08;30.00;;;;;;;-5.56;75.74;97359.66;5111944;28;20051;-72
2022/12/15 12:49:29;;;;;;;49.13;31.37;;;;;;;-2.80;76.06;97827.16;5111546;28;20044;-72
2022/12/15 12:51:58;;;;;;;48.40;31.33;;;;;;;0.71;76.35;98426.63;5113131;28;20410;-73
2022/12/15 12:54:46;;;;;;;46.30;31.13;;;;;;;0.71;76.45;98438.81;5111172;28;20045;-72
2022/12/15 12:57:47;;;;;;;49.53;32.33;;;;;;;-6.00;76.01;97319.38;5111752;28;20051;-73
2022/12/15 13:00:19;;;;;;;47.55;30.95;;;;;;;0.71;76.70;98441.41;5034256;28;20293;-72
2022/12/15 13:03:03;;;;;;;50.80;33.40;;;;;;;-0.55;76.46;98229.75;5051129;28;20137;-73
2022/12/15 13:05:33;;;;;;;48.35;32.03;;;;;;;0.72;76.33;98446.59;5087849;28;20078;-72
2022/12/15 13:08:33;;;;;;;49.65;32.88;;;;;;;0.76;76.63;98463.84;5112183;28;20048;-72
2022/12/15 13:11:42;;;;;;;49.03;33.08;;;;;;;0.78;77.15;98454.22;5111095;28;20044;-72
2022/12/15 13:14:16;;;;;;;44.53;31.63;;;;;;;-6.79;76.03;97192.19;5103481;28;20052;-73
2022/12/15 13:16:44;;;;;;;50.65;34.47;;;;;;;-2.20;76.45;98002.03;5112480;28;20028;-72
2022/12/15 13:19:12;;;;;;;48.13;32.58;;;;;;;0.79;76.71;98462.91;5111456;28;20036;-72
2022/12/15 13:21:54;;;;;;;52.35;33.42;;;;;;;0.79;76.82;98449.84;5110692;28;20058;-72
2022/12/15 13:24:36;;;;;;;56.20;35.78;;;;;;;0.22;77.09;98406.34;5093957;28;20119;-72
2022/12/15 13:27:15;;;;;;;51.88;34.45;;;;;;;-1.91;76.57;98041.06;5112877;28;20117;-72
2022/12/15 13:29:58;;;;;;;55.70;36.75;;;;;;;-6.34;76.38;97216.97;5112974;28;20074;-72
2022/12/15 13:32:30;;;;;;;52.00;35.72;;;;;;;-2.91;76.67;98069.44;5112260;28;20040;-72
2022/12/15 13:34:58;;;;;;;53.30;34.53;;;;;;;-1.24;76.91;98053.94;5111827;28;20043;-71
2022/12/15 13:37:45;;;;;;;51.20;35.42;;;;;;;-2.80;77.27;97800.38;5094618;28;20047;-72
2022/12/15 13:40:32;;;;;;;57.05;36.67;;;;;;;-5.83;76.85;97311.28;5110655;28;20058;-71
2022/12/15 13:43:10;;;;;;;60.75;38.10;;;;;;;0.23;77.30;98445.41;5110701;28;20210;-71
2022/12/15 13:45:52;;;;;;;59.88;37.95;;;;;;;-0.53;77.65;98214.94;5109854;28;20245;-72
2022/12/15 13:48:36;;;;;;;59.85;39.40;;;;;;;-2.37;77.81;98023.22;5092194;28;20052;-72
2022/12/15 13:51:21;;;;;;;64.43;39.70;;;;;;;0.02;77.78;98339.19;5109793;28;20231;-72
2022/12/15 13:53:53;;;;;;;57.53;37.03;;;;;;;0.69;78.04;98458.84;5105502;28;20058;-72
2022/12/15 13:56:28;;;;;;;57.25;37.60;;;;;;;0.68;78.26;98463.22;5093295;28;20074;-72
2022/12/15 13:59:05;;;;;;;59.72;39.45;;;;;;;-0.80;78.16;98220.03;5093375;28;20043;-72
2022/12/15 14:01:32;;;;;;;61.67;43.10;;;;;;;0.67;77.80;98735.34;5110630;28;20099;-72
2022/12/15 14:04:06;;;;;;;66.45;41.10;;;;;;;-0.73;78.40;98210.31;5111238;28;20039;-72
2022/12/15 14:06:39;;;;;;;60.03;38.67;;;;;;;0.62;78.51;98445.16;5110889;28;20040;-71
2022/12/15 14:09:12;;;;;;;63.83;39.88;;;;;;;-0.04;78.26;98339.34;5110073;28;20048;-72